メインページ
METAR-TAF:

METAR-TAF

空港 :

ドバイ国際空港

ドバイ, アラブ首長国連邦

緯度: 25-15-10N, 経度: 055-21-52E, 海抜: 8m

現時点の気象観測

当レポートは55分前の05:00(UTC)に作成
南東の風 5kt、東/南東からの間で変化する
気温 31°C
湿度 29%
気圧 1013 hPa
視程10km以上
1,500メートル以下は雲なし、積乱雲なし

METAR: OMDB 040500Z 14005KT 120V180 CAVOK 31/11 Q1013 NOSIG

時間: 09:55 (05:55 UTC)

予報

当レポートは1時間1分前の04:54(UTC)に作成
予報は04日の 06時(UTC)から 05日の 12時(UTC)まで有効
の風 12kt
視程: 8000m
04日の 08時(UTC)から 04日の 10時(UTC)まで徐々に
北西の風 12kt
04日の 16時(UTC)から 04日の 18時(UTC)まで徐々に
東/南東の風 5kt
05日の 03時(UTC)から 05日の 05時(UTC)まで徐々に
西の風 12kt

TAF: OMDB 040454Z 0406/0512 18012KT 8000 NSC BECMG 0408/0410 31012KT BECMG 0416/0418 11005KT BECMG 0503/0505 28012KT

4,000以上の空港の気象観測と天気予報(METAR報とTAF報)

利用可能な観測所は地図上に黄色い丸と赤い丸で示す。

丸の上にカーソルを重ねると観測所名を参照できる。

次にクリックすると気象観測と天気予報を参照できる。

マップの切り替え:黒色「×」印の緑ボタンをクリックして拡大、「-」印の緑ボタンをクリックして縮小、緑色の三角印をクリックして隣りの地図に切り替え


METAR-TAF: